createdAt,value
2022-08-07T00:11:12.724Z,33.08
2022-08-07T00:19:07.131Z,33.20
2022-08-07T00:33:40.875Z,34.65
2022-08-07T00:36:47.549Z,33.85
2022-08-07T00:39:45.139Z,31.55
2022-08-07T00:42:30.963Z,31.98
2022-08-07T00:50:19.863Z,33.10
2022-08-07T00:54:07.401Z,31.92
2022-08-07T00:56:57.131Z,30.48
2022-08-07T01:00:02.915Z,31.52
2022-08-07T01:02:59.748Z,31.25
2022-08-07T01:12:30.221Z,29.48
2022-08-07T01:15:05.553Z,28.80
2022-08-07T01:17:52.990Z,33.55
2022-08-07T01:20:58.472Z,35.30
2022-08-07T01:23:39.473Z,36.05
2022-08-07T01:29:04.452Z,34.15
2022-08-07T01:31:41.650Z,34.65
2022-08-07T01:34:30.963Z,33.10
2022-08-07T01:37:03.911Z,32.85
2022-08-07T01:39:50.525Z,34.83
2022-08-07T01:42:40.135Z,33.88
2022-08-07T01:45:22.910Z,33.03
2022-08-07T01:48:19.928Z,28.80
2022-08-07T01:52:03.473Z,32.40
2022-08-07T01:54:36.945Z,37.90
2022-08-07T01:57:24.204Z,37.75
2022-08-07T02:00:12.784Z,35.40
2022-08-07T02:03:18.175Z,38.42
2022-08-07T02:05:48.122Z,34.58
2022-08-07T02:08:31.313Z,35.15
2022-08-07T02:11:03.506Z,40.33
2022-08-07T02:13:58.011Z,36.70
2022-08-07T02:16:28.809Z,38.00
2022-08-07T02:19:05.663Z,36.05
2022-08-07T02:21:58.887Z,31.23
2022-08-07T02:24:30.210Z,33.50
2022-08-07T02:27:01.467Z,33.63
2022-08-07T02:29:54.666Z,32.50
2022-08-07T02:32:30.062Z,34.72
2022-08-07T02:35:00.988Z,33.47
2022-08-07T02:37:34.075Z,34.42
2022-08-07T02:40:31.197Z,34.20
2022-08-07T02:43:01.331Z,32.47
2022-08-07T02:45:59.001Z,35.03
2022-08-07T02:48:32.438Z,34.90
2022-08-07T02:51:14.272Z,36.83
2022-08-07T02:53:59.253Z,31.02
2022-08-07T02:56:32.624Z,34.72
2022-08-07T02:59:05.764Z,35.28
2022-08-07T03:01:40.329Z,35.05
2022-08-07T03:04:15.234Z,35.67
2022-08-07T03:06:48.291Z,29.65
2022-08-07T03:09:42.257Z,33.67
2022-08-07T03:12:21.725Z,34.92
2022-08-07T03:14:56.392Z,34.05
2022-08-07T03:17:54.093Z,33.30
2022-08-07T03:20:25.040Z,34.17
2022-08-07T03:22:57.741Z,34.53
2022-08-07T03:25:32.478Z,32.45
2022-08-07T03:28:38.004Z,31.70
2022-08-07T03:31:19.726Z,30.90
2022-08-07T03:34:18.556Z,30.42
2022-08-07T03:36:53.246Z,31.40
2022-08-07T03:39:59.820Z,33.92
2022-08-07T03:42:14.314Z,31.10
2022-08-07T03:44:47.120Z,34.40
2022-08-07T03:47:25.575Z,30.88
2022-08-07T03:50:14.628Z,29.70
2022-08-07T03:52:46.744Z,33.95
2022-08-07T03:55:16.277Z,32.65
2022-08-07T03:58:08.765Z,33.67
2022-08-07T04:00:46.193Z,35.28
2022-08-07T04:03:16.313Z,33.65
2022-08-07T04:05:46.698Z,32.33
2022-08-07T04:08:21.151Z,33.35
2022-08-07T04:10:54.634Z,31.00
2022-08-07T04:14:10.327Z,29.25
2022-08-07T04:16:37.145Z,31.58
2022-08-07T04:19:14.649Z,31.17
2022-08-07T04:22:12.129Z,31.85
2022-08-07T04:24:45.151Z,31.73
2022-08-07T04:27:25.392Z,32.97
2022-08-07T04:30:03.198Z,32.83
2022-08-07T04:32:48.694Z,29.42
2022-08-07T04:35:35.098Z,33.55
2022-08-07T04:38:13.176Z,29.02
2022-08-07T04:40:56.681Z,27.52
2022-08-07T04:44:09.947Z,30.80
2022-08-07T04:47:04.008Z,31.83
2022-08-07T04:50:04.393Z,29.75
2022-08-07T04:52:52.183Z,29.95
2022-08-07T04:58:14.586Z,28.25
2022-08-07T05:00:12.067Z,35.08
2022-08-07T05:04:00.037Z,29.92
2022-08-07T05:06:43.365Z,29.73
2022-08-07T05:09:43.213Z,33.50
2022-08-07T05:12:30.588Z,32.42
2022-08-07T05:18:37.826Z,32.70
2022-08-07T05:21:12.564Z,29.85
2022-08-07T05:23:51.054Z,31.38
2022-08-07T05:26:24.010Z,28.90
2022-08-07T05:29:04.403Z,30.30
2022-08-07T05:31:52.776Z,31.15
2022-08-07T05:34:28.335Z,28.02
2022-08-07T05:37:07.684Z,29.15
2022-08-07T05:40:13.630Z,26.30
2022-08-07T05:42:33.784Z,28.08
2022-08-07T05:45:25.702Z,27.02
2022-08-07T05:48:03.292Z,30.02
2022-08-07T05:54:31.129Z,29.05
2022-08-07T05:57:53.017Z,29.60
2022-08-07T06:00:25.688Z,30.50
2022-08-07T06:03:06.989Z,33.25
2022-08-07T06:05:36.306Z,32.75
2022-08-07T06:08:30.131Z,40.55
2022-08-07T06:11:19.070Z,44.00
2022-08-07T06:14:12.538Z,42.25
2022-08-07T06:16:41.761Z,45.53
2022-08-07T06:22:41.143Z,42.35
2022-08-07T06:25:34.710Z,45.45
2022-08-07T06:28:08.927Z,44.25
2022-08-07T06:30:46.017Z,46.80
2022-08-07T06:33:36.494Z,42.72
2022-08-07T06:36:13.949Z,43.33
2022-08-07T06:40:13.042Z,46.33
2022-08-07T06:42:04.102Z,44.72
2022-08-07T06:45:26.491Z,45.17
2022-08-07T06:48:03.322Z,43.53
2022-08-07T06:50:47.772Z,52.67
2022-08-07T06:55:28.956Z,46.83
2022-08-07T06:56:56.853Z,50.38
2022-08-07T07:00:13.246Z,46.70
2022-08-07T07:03:39.895Z,43.50
2022-08-07T07:06:11.687Z,51.28
2022-08-07T07:08:46.459Z,55.40
2022-08-07T07:12:06.814Z,46.63
2022-08-07T07:14:29.479Z,50.63
2022-08-07T07:17:04.580Z,51.38
2022-08-07T07:24:08.992Z,51.63
2022-08-07T07:26:34.513Z,53.95
2022-08-07T07:29:56.680Z,56.63
2022-08-07T07:32:17.369Z,54.97
2022-08-07T07:35:09.815Z,56.33
2022-08-07T07:37:49.980Z,68.25
2022-08-07T07:40:28.755Z,71.57
2022-08-07T07:43:27.538Z,75.82
2022-08-07T07:46:54.469Z,68.68
2022-08-07T07:50:35.391Z,90.47
2022-08-07T07:52:42.271Z,123.07
2022-08-07T07:55:45.664Z,122.53
2022-08-07T07:58:37.087Z,124.55
2022-08-07T08:02:01.928Z,110.93
2022-08-07T08:07:20.331Z,110.10
2022-08-07T08:12:58.838Z,110.07
2022-08-07T08:15:57.712Z,104.38
2022-08-07T08:18:38.277Z,87.45
2022-08-07T08:27:30.543Z,108.40
2022-08-07T08:30:17.486Z,131.95
2022-08-07T08:36:25.549Z,110.82
2022-08-07T08:39:07.205Z,106.97
2022-08-07T08:42:20.598Z,116.70
2022-08-07T08:45:13.021Z,127.82
2022-08-07T08:47:54.680Z,134.43
2022-08-07T08:50:39.237Z,149.10
2022-08-07T08:56:47.603Z,182.70
2022-08-07T08:59:42.154Z,139.13
2022-08-07T09:02:49.351Z,81.57
2022-08-07T09:05:37.090Z,44.15
2022-08-07T09:08:33.799Z,32.92
2022-08-07T09:11:14.063Z,49.28
2022-08-07T09:14:19.840Z,75.10
2022-08-07T09:20:57.921Z,154.48
2022-08-07T09:24:30.859Z,142.40
2022-08-07T09:27:38.399Z,185.70
2022-08-07T09:30:28.435Z,355.95
2022-08-07T09:33:16.605Z,502.52
2022-08-07T09:36:50.010Z,471.65
2022-08-07T09:40:05.038Z,563.20
2022-08-07T09:42:50.332Z,522.28
2022-08-07T09:47:49.764Z,480.75
2022-08-07T09:48:29.767Z,438.85
2022-08-07T09:51:26.079Z,331.98
2022-08-07T09:54:19.264Z,338.52
2022-08-07T09:57:46.659Z,456.58
2022-08-07T10:00:29.773Z,432.58
2022-08-07T10:06:49.047Z,277.65
2022-08-07T10:10:00.994Z,204.63
2022-08-07T10:12:53.743Z,326.83
2022-08-07T10:15:45.227Z,447.17
2022-08-07T10:18:32.655Z,470.55
2022-08-07T10:22:12.664Z,537.75
2022-08-07T10:24:57.415Z,545.15
2022-08-07T10:27:47.553Z,550.22
2022-08-07T10:30:26.616Z,579.35
2022-08-07T10:33:23.652Z,605.25
2022-08-07T10:36:45.475Z,639.13
2022-08-07T10:43:34.088Z,660.67
2022-08-07T10:46:10.669Z,651.85
2022-08-07T10:48:49.246Z,689.85
2022-08-07T10:51:39.568Z,664.47
2022-08-07T10:54:19.186Z,633.53
2022-08-07T10:57:22.146Z,662.95
2022-08-07T11:00:39.293Z,669.35
2022-08-07T11:03:21.255Z,662.92
2022-08-07T11:05:58.187Z,590.65
2022-08-07T11:08:38.960Z,602.38
2022-08-07T11:11:11.842Z,630.60
2022-08-07T11:14:46.452Z,619.60
2022-08-07T11:16:51.293Z,618.00
2022-08-07T11:19:31.092Z,615.97
2022-08-07T11:22:26.593Z,617.92
2022-08-07T11:25:14.829Z,602.70
2022-08-07T11:28:01.429Z,556.35
2022-08-07T11:30:41.709Z,569.03
2022-08-07T11:33:53.831Z,500.52
2022-08-07T11:36:30.597Z,532.13
2022-08-07T11:39:09.597Z,522.97
2022-08-07T11:42:01.747Z,491.52
2022-08-07T11:44:52.002Z,417.73
2022-08-07T11:47:56.533Z,392.08
2022-08-07T11:50:57.865Z,394.60
2022-08-07T11:53:57.016Z,405.73
2022-08-07T11:56:43.229Z,380.00
2022-08-07T12:00:12.184Z,395.88
2022-08-07T12:02:30.884Z,386.13
2022-08-07T12:05:15.310Z,387.13
2022-08-07T12:08:06.544Z,312.67
2022-08-07T12:11:08.400Z,350.70
2022-08-07T12:13:47.746Z,341.13
2022-08-07T12:16:30.387Z,339.45
2022-08-07T12:19:14.702Z,343.73
2022-08-07T12:22:39.046Z,351.58
2022-08-07T12:26:02.953Z,379.48
2022-08-07T12:28:17.165Z,365.85
2022-08-07T12:31:06.626Z,330.77
2022-08-07T12:33:56.233Z,329.27
2022-08-07T12:36:33.417Z,397.85
2022-08-07T12:39:38.822Z,322.23
2022-08-07T12:41:57.618Z,355.52
2022-08-07T12:44:29.681Z,357.00
2022-08-07T12:47:10.870Z,336.73
2022-08-07T12:49:51.614Z,389.55
2022-08-07T12:52:34.119Z,377.13
2022-08-07T12:55:17.489Z,388.55
2022-08-07T12:58:00.878Z,377.35
2022-08-07T13:00:50.004Z,370.25
2022-08-07T13:04:01.972Z,347.27
2022-08-07T13:07:00.250Z,364.08
2022-08-07T13:10:29.302Z,354.15
2022-08-07T13:12:42.786Z,343.63
2022-08-07T13:15:29.763Z,352.52
2022-08-07T13:18:26.161Z,360.42
2022-08-07T13:21:02.917Z,356.38
2022-08-07T13:24:03.767Z,328.83
2022-08-07T13:26:41.793Z,355.40
2022-08-07T13:29:21.768Z,352.42
2022-08-07T13:32:00.201Z,358.95
2022-08-07T13:34:51.718Z,357.08
2022-08-07T13:37:33.192Z,360.52
2022-08-07T13:40:36.155Z,365.13
2022-08-07T13:43:11.926Z,342.13
2022-08-07T13:46:10.906Z,314.90
2022-08-07T13:48:38.626Z,350.38
2022-08-07T13:51:37.597Z,367.23
2022-08-07T13:54:03.273Z,355.27
2022-08-07T13:56:40.805Z,316.55
2022-08-07T13:59:25.724Z,307.23
2022-08-07T14:02:07.712Z,338.70
2022-08-07T14:04:50.347Z,368.58
2022-08-07T14:07:26.119Z,354.83
2022-08-07T14:10:14.925Z,321.52
2022-08-07T14:12:55.708Z,341.15
2022-08-07T14:15:36.090Z,328.10
2022-08-07T14:18:23.970Z,367.75
2022-08-07T14:21:08.183Z,378.67
2022-08-07T14:23:59.956Z,347.85
2022-08-07T14:26:34.650Z,370.98
2022-08-07T14:30:05.061Z,371.65
2022-08-07T14:32:01.344Z,347.17
2022-08-07T14:34:31.958Z,351.17
2022-08-07T14:37:05.170Z,368.85
2022-08-07T14:40:17.944Z,360.92
2022-08-07T14:43:54.962Z,347.67
2022-08-07T14:45:48.920Z,347.85
2022-08-07T14:48:27.357Z,354.02
2022-08-07T14:54:09.886Z,319.15
2022-08-07T14:56:46.064Z,319.10
2022-08-07T15:00:03.003Z,343.95
2022-08-07T15:02:31.794Z,333.33
2022-08-07T15:05:03.447Z,356.10
2022-08-07T15:07:51.361Z,330.27
2022-08-07T15:10:25.086Z,389.42
2022-08-07T15:12:58.302Z,349.83
2022-08-07T15:18:35.659Z,354.98
2022-08-07T15:21:08.477Z,318.70
2022-08-07T15:25:13.547Z,337.85
2022-08-07T15:27:07.529Z,355.75
2022-08-07T15:36:01.209Z,314.88
2022-08-07T15:41:24.214Z,369.35
2022-08-07T15:44:12.482Z,341.08
2022-08-07T15:46:50.030Z,330.55
2022-08-07T15:50:04.774Z,351.10
2022-08-07T15:52:29.995Z,351.05
2022-08-07T15:55:08.582Z,354.42
2022-08-07T15:57:40.120Z,335.15
2022-08-07T16:00:33.689Z,365.75
2022-08-07T16:03:22.006Z,352.38
2022-08-07T16:06:04.079Z,347.90
2022-08-07T16:08:38.713Z,358.42
2022-08-07T16:11:26.458Z,375.27
2022-08-07T16:14:10.731Z,402.98
2022-08-07T16:16:57.264Z,344.08
2022-08-07T16:19:43.176Z,389.95
2022-08-07T16:22:55.132Z,373.33
2022-08-07T16:25:54.916Z,369.02
2022-08-07T16:29:18.787Z,382.35
2022-08-07T16:32:02.263Z,378.33
2022-08-07T16:34:40.888Z,346.55
2022-08-07T16:38:05.572Z,382.75
2022-08-07T16:41:15.873Z,362.45
2022-08-07T16:44:46.313Z,330.33
2022-08-07T16:47:56.773Z,318.08
2022-08-07T16:50:52.678Z,339.85
2022-08-07T16:54:01.445Z,313.85
2022-08-07T16:56:39.057Z,303.08
2022-08-07T16:59:17.367Z,325.42
2022-08-07T17:02:03.203Z,304.23
2022-08-07T17:04:57.495Z,326.98
2022-08-07T17:07:55.458Z,321.52
2022-08-07T17:10:34.222Z,297.70
2022-08-07T17:13:41.379Z,306.70
2022-08-07T17:16:25.003Z,326.95
2022-08-07T17:19:04.645Z,315.95
2022-08-07T17:21:50.781Z,301.30
2022-08-07T17:24:33.091Z,283.27
2022-08-07T17:27:08.548Z,323.45
2022-08-07T17:30:15.929Z,279.15
2022-08-07T17:32:57.949Z,299.23
2022-08-07T17:35:55.363Z,248.00
2022-08-07T17:38:34.150Z,257.55
2022-08-07T17:42:00.679Z,283.90
2022-08-07T17:44:05.841Z,247.35
2022-08-07T17:46:44.222Z,258.38
2022-08-07T17:49:23.841Z,236.60
2022-08-07T17:52:00.594Z,247.15
2022-08-07T17:54:53.060Z,233.32
2022-08-07T17:57:56.665Z,246.20
2022-08-07T18:00:33.136Z,254.30
2022-08-07T18:03:18.139Z,229.15
2022-08-07T18:06:02.147Z,228.07
2022-08-07T18:08:35.203Z,215.80
2022-08-07T18:12:08.022Z,226.60
2022-08-07T18:14:23.617Z,201.98
2022-08-07T18:16:58.405Z,196.60
2022-08-07T18:21:04.307Z,208.38
2022-08-07T18:22:35.024Z,197.43
2022-08-07T18:25:19.079Z,200.32
2022-08-07T18:28:34.526Z,201.77
2022-08-07T18:31:18.619Z,181.43
2022-08-07T18:34:37.599Z,184.75
2022-08-07T18:38:58.640Z,206.90
2022-08-07T18:40:42.768Z,145.10
2022-08-07T18:44:16.006Z,139.80
2022-08-07T18:47:26.752Z,152.45
2022-08-07T18:50:48.743Z,141.77
2022-08-07T18:53:40.761Z,136.00
2022-08-07T18:56:18.518Z,128.00
2022-08-07T18:59:01.578Z,132.25
2022-08-07T19:02:32.485Z,129.35
2022-08-07T19:05:09.689Z,126.90
2022-08-07T19:07:57.597Z,127.90
2022-08-07T19:10:49.628Z,132.32
2022-08-07T19:13:29.092Z,119.05
2022-08-07T19:17:00.561Z,126.80
2022-08-07T19:19:02.449Z,114.95
2022-08-07T19:22:04.688Z,121.97
2022-08-07T19:24:53.736Z,123.03
2022-08-07T19:28:57.820Z,134.02
2022-08-07T19:31:00.302Z,139.02
2022-08-07T19:33:57.965Z,127.13
2022-08-07T19:36:42.719Z,125.75
2022-08-07T19:39:56.542Z,136.63
2022-08-07T19:42:39.948Z,137.45
2022-08-07T19:46:06.204Z,115.65
2022-08-07T19:48:24.251Z,124.47
2022-08-07T19:51:51.007Z,121.95
2022-08-07T19:54:33.412Z,103.20
2022-08-07T19:58:00.225Z,112.25
2022-08-07T20:00:28.422Z,116.30
2022-08-07T20:03:03.243Z,106.63
2022-08-07T20:06:00.691Z,111.80
2022-08-07T20:08:48.876Z,129.13
2022-08-07T20:12:01.538Z,120.00
2022-08-07T20:14:54.023Z,135.95
2022-08-07T20:17:38.541Z,119.10
2022-08-07T20:20:10.639Z,110.10
2022-08-07T20:22:48.650Z,103.68
2022-08-07T20:25:20.435Z,98.78
2022-08-07T20:27:54.297Z,94.25
2022-08-07T20:30:33.785Z,93.70
2022-08-07T20:33:05.499Z,99.88
2022-08-07T20:35:54.358Z,97.97
2022-08-07T20:38:32.609Z,95.10
2022-08-07T20:41:05.520Z,87.32
2022-08-07T20:43:36.221Z,90.97
2022-08-07T20:46:28.200Z,80.68
2022-08-07T20:49:58.480Z,82.00
2022-08-07T20:51:51.053Z,77.05
2022-08-07T20:54:31.860Z,69.97
2022-08-07T20:57:04.677Z,72.00
2022-08-07T21:00:07.710Z,75.65
2022-08-07T21:02:54.071Z,75.18
2022-08-07T21:05:42.623Z,72.75
2022-08-07T21:08:16.190Z,63.55
2022-08-07T21:10:51.474Z,50.75
2022-08-07T21:13:24.693Z,58.38
2022-08-07T21:16:11.709Z,64.97
2022-08-07T21:18:46.243Z,58.30
2022-08-07T21:21:21.476Z,66.85
2022-08-07T21:24:04.113Z,57.92
2022-08-07T21:26:43.031Z,63.22
2022-08-07T21:29:18.549Z,60.55
2022-08-07T21:32:43.776Z,64.38
2022-08-07T21:34:59.928Z,58.10
2022-08-07T21:37:58.194Z,61.22
2022-08-07T21:40:36.120Z,55.45
2022-08-07T21:43:10.620Z,69.15
2022-08-07T21:46:10.863Z,56.45
2022-08-07T21:48:43.815Z,56.08
2022-08-07T21:51:32.231Z,57.88
2022-08-07T21:54:14.047Z,70.30
2022-08-07T21:57:03.479Z,67.50
2022-08-07T22:00:04.461Z,63.65
2022-08-07T22:02:42.346Z,71.82
2022-08-07T22:05:21.978Z,63.85
2022-08-07T22:08:07.062Z,60.35
2022-08-07T22:10:42.501Z,68.63
2022-08-07T22:13:16.010Z,53.03
2022-08-07T22:16:41.978Z,58.85
2022-08-07T22:18:54.376Z,57.25
2022-08-07T22:22:01.743Z,63.13
2022-08-07T22:24:22.314Z,55.72
2022-08-07T22:27:05.493Z,50.35
2022-08-07T22:29:48.365Z,57.95
2022-08-07T22:32:25.101Z,71.68
2022-08-07T22:34:55.491Z,73.32
2022-08-07T22:38:03.487Z,73.47
2022-08-07T22:40:27.997Z,65.93
2022-08-07T22:43:03.349Z,69.05
2022-08-07T22:46:40.464Z,67.63
2022-08-07T22:49:02.286Z,61.97
2022-08-07T22:52:02.774Z,58.03
2022-08-07T22:55:14.789Z,58.53
2022-08-07T22:58:05.585Z,51.38
2022-08-07T23:00:44.005Z,57.58
2022-08-07T23:03:57.961Z,54.17
2022-08-07T23:06:52.800Z,55.25
2022-08-07T23:10:04.822Z,54.47
2022-08-07T23:12:34.534Z,61.17
2022-08-07T23:15:21.946Z,61.15
2022-08-07T23:18:14.539Z,56.08
2022-08-07T23:21:16.218Z,55.40
2022-08-07T23:24:16.987Z,53.80
2022-08-07T23:26:59.345Z,55.85
2022-08-07T23:30:39.126Z,52.40
2022-08-07T23:34:34.287Z,58.10
2022-08-07T23:36:17.323Z,56.50
2022-08-07T23:39:08.728Z,58.05
2022-08-07T23:42:05.071Z,56.92
2022-08-07T23:45:03.610Z,57.83
2022-08-07T23:47:53.562Z,53.30
2022-08-07T23:50:38.531Z,56.28
2022-08-07T23:53:22.911Z,61.05
2022-08-07T23:56:20.846Z,52.83
2022-08-07T23:59:10.628Z,53.15
